createdAt,value
2018-08-28T00:00:49.713Z,0.00
2018-08-28T00:01:49.643Z,0.00
2018-08-28T00:02:49.573Z,0.00
2018-08-28T00:03:49.504Z,0.00
2018-08-28T00:04:49.424Z,0.00
2018-08-28T00:05:49.367Z,0.00
2018-08-28T00:06:49.287Z,0.00
2018-08-28T00:07:49.224Z,0.00
2018-08-28T00:08:49.140Z,0.00
2018-08-28T00:09:49.073Z,0.00
2018-08-28T00:10:49.024Z,0.00
2018-08-28T00:11:48.936Z,0.00
2018-08-28T00:12:48.858Z,0.00
2018-08-28T00:13:48.792Z,0.00
2018-08-28T00:14:48.714Z,0.00
2018-08-28T00:15:48.644Z,0.00
2018-08-28T00:16:48.570Z,0.00
2018-08-28T00:17:48.501Z,0.00
2018-08-28T00:18:48.490Z,0.00
2018-08-28T00:19:48.361Z,0.00
2018-08-28T00:20:48.287Z,0.00
2018-08-28T00:21:48.216Z,0.00
2018-08-28T00:22:48.145Z,0.00
2018-08-28T00:23:48.075Z,0.00
2018-08-28T00:24:48.003Z,0.00
2018-08-28T00:25:47.931Z,0.00
2018-08-28T00:26:47.863Z,0.00
2018-08-28T00:27:47.792Z,0.00
2018-08-28T00:28:47.718Z,0.00
2018-08-28T00:29:47.646Z,0.00
2018-08-28T00:30:47.573Z,0.00
2018-08-28T00:31:47.501Z,0.00
2018-08-28T00:32:47.437Z,0.00
2018-08-28T00:33:47.368Z,0.00
2018-08-28T00:34:47.290Z,0.00
2018-08-28T00:35:47.219Z,0.00
2018-08-28T00:36:47.147Z,0.00
2018-08-28T00:37:47.069Z,0.00
2018-08-28T00:38:47.002Z,0.00
2018-08-28T00:39:46.934Z,0.00
2018-08-28T00:40:46.858Z,0.00
2018-08-28T00:41:46.788Z,0.00
2018-08-28T00:42:46.716Z,0.00
2018-08-28T00:43:46.657Z,0.00
2018-08-28T00:44:46.615Z,0.00
2018-08-28T00:45:46.505Z,0.00
2018-08-28T00:46:46.431Z,0.00
2018-08-28T00:47:46.359Z,0.00
2018-08-28T00:48:46.282Z,0.00
2018-08-28T00:49:46.221Z,0.00
2018-08-28T00:50:46.145Z,0.00
2018-08-28T00:51:46.074Z,0.00
2018-08-28T00:52:46.005Z,0.00
2018-08-28T00:53:45.929Z,0.00
2018-08-28T00:54:45.856Z,0.00
2018-08-28T00:55:45.795Z,0.00
2018-08-28T00:56:45.715Z,0.00
2018-08-28T00:57:45.641Z,0.00
2018-08-28T00:58:45.571Z,0.00
2018-08-28T00:59:45.501Z,0.00
2018-08-28T01:00:45.429Z,0.00
2018-08-28T01:01:45.358Z,0.00
2018-08-28T01:02:45.287Z,0.00
2018-08-28T01:03:45.215Z,0.00
2018-08-28T01:04:45.162Z,0.00
2018-08-28T01:05:45.071Z,0.00
2018-08-28T01:06:45.000Z,0.00
2018-08-28T01:07:44.930Z,0.00
2018-08-28T01:08:44.857Z,0.00
2018-08-28T01:09:44.785Z,0.00
2018-08-28T01:10:44.720Z,0.00
2018-08-28T01:11:44.643Z,0.00
2018-08-28T01:12:44.574Z,0.00
2018-08-28T01:13:44.503Z,0.00
2018-08-28T01:14:44.450Z,0.00
2018-08-28T01:15:44.358Z,0.00
2018-08-28T01:16:44.288Z,0.00
2018-08-28T01:17:44.215Z,0.00
2018-08-28T01:18:44.143Z,0.00
2018-08-28T01:19:44.072Z,0.00
2018-08-28T01:20:44.003Z,0.00
2018-08-28T01:21:43.930Z,0.00
2018-08-28T01:22:43.857Z,0.00
2018-08-28T01:23:43.786Z,0.00
2018-08-28T01:24:43.713Z,0.00
2018-08-28T01:25:43.643Z,0.00
2018-08-28T01:26:43.569Z,0.00
2018-08-28T01:27:43.501Z,0.00
2018-08-28T01:28:43.427Z,0.00
2018-08-28T01:29:43.359Z,0.00
2018-08-28T01:30:43.283Z,0.00
2018-08-28T01:31:43.213Z,0.00
2018-08-28T01:32:43.141Z,0.00
2018-08-28T01:33:43.069Z,0.00
2018-08-28T01:34:42.999Z,0.00
2018-08-28T01:35:42.930Z,0.00
2018-08-28T01:36:42.856Z,0.00
2018-08-28T01:37:42.785Z,0.00
2018-08-28T01:38:42.715Z,0.00
2018-08-28T01:39:42.642Z,0.00
2018-08-28T01:40:42.569Z,0.00
2018-08-28T01:41:42.498Z,0.00
2018-08-28T01:42:42.424Z,0.00
2018-08-28T01:43:42.355Z,0.00
2018-08-28T01:44:42.286Z,0.00
2018-08-28T01:45:42.214Z,0.00
2018-08-28T01:46:42.146Z,0.00
2018-08-28T01:47:42.084Z,0.00
2018-08-28T01:48:41.995Z,0.00
2018-08-28T01:49:41.924Z,0.00
2018-08-28T01:50:41.852Z,0.00
2018-08-28T01:51:41.782Z,0.00
2018-08-28T01:52:41.709Z,0.00
2018-08-28T01:53:41.642Z,0.00
2018-08-28T01:54:41.568Z,0.00
2018-08-28T01:55:41.495Z,0.00
2018-08-28T01:56:41.422Z,0.00
2018-08-28T01:57:41.351Z,0.00
2018-08-28T01:58:41.280Z,0.00
2018-08-28T01:59:41.216Z,0.00
2018-08-28T02:00:41.133Z,0.00
2018-08-28T02:01:41.063Z,0.00
2018-08-28T02:02:40.996Z,0.00
2018-08-28T02:03:40.925Z,0.00
2018-08-28T02:04:40.848Z,0.00
2018-08-28T02:05:40.783Z,0.00
2018-08-28T02:06:40.708Z,0.00
2018-08-28T02:07:40.637Z,0.00
2018-08-28T02:08:40.566Z,0.00
2018-08-28T02:09:40.490Z,0.00
2018-08-28T02:10:40.419Z,0.00
2018-08-28T02:11:40.351Z,0.00
2018-08-28T02:12:40.280Z,0.00
2018-08-28T02:13:40.205Z,0.00
2018-08-28T02:14:40.138Z,0.00
2018-08-28T02:15:40.063Z,0.00
2018-08-28T02:16:39.989Z,0.00
2018-08-28T02:17:39.918Z,0.00
2018-08-28T02:18:39.848Z,0.00
2018-08-28T02:19:39.773Z,0.00
2018-08-28T02:20:39.705Z,0.00
2018-08-28T02:21:39.631Z,0.00
2018-08-28T02:22:39.563Z,0.00
2018-08-28T02:23:39.489Z,0.00
2018-08-28T02:24:39.416Z,0.00
2018-08-28T02:25:39.347Z,0.00
2018-08-28T02:26:39.276Z,0.00
2018-08-28T02:27:39.204Z,0.00
2018-08-28T02:28:39.131Z,0.00
2018-08-28T02:29:39.065Z,0.00
2018-08-28T02:30:38.988Z,0.00
2018-08-28T02:31:38.915Z,0.00
2018-08-28T02:32:38.842Z,0.00
2018-08-28T02:33:38.873Z,0.00
2018-08-28T02:34:38.700Z,0.00
2018-08-28T02:35:38.626Z,0.00
2018-08-28T02:36:38.555Z,0.00
2018-08-28T02:37:38.486Z,0.00
2018-08-28T02:38:38.411Z,0.00
2018-08-28T02:39:38.344Z,0.00
2018-08-28T02:40:38.267Z,0.00
2018-08-28T02:41:38.190Z,0.00
2018-08-28T02:42:38.131Z,0.00
2018-08-28T02:43:38.052Z,0.00
2018-08-28T02:44:37.977Z,0.00
2018-08-28T02:45:37.910Z,0.00
2018-08-28T02:46:37.837Z,0.00
2018-08-28T02:47:37.765Z,0.00
2018-08-28T02:48:37.693Z,0.00
2018-08-28T02:49:37.620Z,0.00
2018-08-28T02:50:37.550Z,0.00
2018-08-28T02:51:37.476Z,0.00
2018-08-28T02:52:37.408Z,0.00
2018-08-28T02:53:37.332Z,0.00
2018-08-28T02:54:37.261Z,0.00
2018-08-28T02:55:37.186Z,0.00
2018-08-28T02:56:37.113Z,0.00
2018-08-28T02:57:37.045Z,0.00
2018-08-28T02:58:36.974Z,0.00
2018-08-28T02:59:36.900Z,0.00
2018-08-28T03:00:36.823Z,0.00
2018-08-28T03:01:36.755Z,0.00
2018-08-28T03:02:36.683Z,0.00
2018-08-28T03:03:36.615Z,0.00
2018-08-28T03:04:36.537Z,0.00
2018-08-28T03:05:36.466Z,0.00
2018-08-28T03:06:36.393Z,0.00
2018-08-28T03:07:36.322Z,0.00
2018-08-28T03:08:36.248Z,0.00
2018-08-28T03:09:36.182Z,0.00
2018-08-28T03:10:36.104Z,0.00
2018-08-28T03:11:36.141Z,0.00
2018-08-28T03:12:35.960Z,0.00
2018-08-28T03:13:35.885Z,0.00
2018-08-28T03:14:35.834Z,0.00
2018-08-28T03:15:35.800Z,0.00
2018-08-28T03:16:35.672Z,0.00
2018-08-28T03:17:35.594Z,0.00
2018-08-28T03:18:35.522Z,0.00
2018-08-28T03:19:35.457Z,0.00
2018-08-28T03:20:35.376Z,0.00
2018-08-28T03:21:35.306Z,0.00
2018-08-28T03:22:35.230Z,0.00
2018-08-28T03:23:35.158Z,0.00
2018-08-28T03:24:35.086Z,0.00
2018-08-28T03:25:35.014Z,0.00
2018-08-28T03:26:34.940Z,0.00
2018-08-28T03:27:34.870Z,0.00
2018-08-28T03:28:34.803Z,0.00
2018-08-28T03:29:34.721Z,0.00
2018-08-28T03:30:34.652Z,0.00
2018-08-28T03:31:34.573Z,0.00
2018-08-28T03:32:34.504Z,0.00
2018-08-28T03:33:34.436Z,0.00
2018-08-28T03:34:34.355Z,0.00
2018-08-28T03:35:34.286Z,0.00
2018-08-28T03:36:34.216Z,0.00
2018-08-28T03:37:34.143Z,0.00
2018-08-28T03:38:34.070Z,0.00
2018-08-28T03:39:33.996Z,0.00
2018-08-28T03:40:33.921Z,0.00
2018-08-28T03:41:33.847Z,0.00
2018-08-28T03:42:33.779Z,0.00
2018-08-28T03:43:33.706Z,0.00
2018-08-28T03:44:33.660Z,0.00
2018-08-28T03:45:33.557Z,0.00
2018-08-28T03:46:33.494Z,0.00
2018-08-28T03:47:33.418Z,0.00
2018-08-28T03:48:33.340Z,0.00
2018-08-28T03:49:33.266Z,0.00
2018-08-28T03:50:33.194Z,0.00
2018-08-28T03:51:33.126Z,0.00
2018-08-28T03:52:33.048Z,0.00
2018-08-28T03:53:32.973Z,0.00
2018-08-28T03:54:32.928Z,0.00
2018-08-28T03:55:32.925Z,0.00
2018-08-28T03:56:32.757Z,0.00
2018-08-28T03:57:32.682Z,0.00
2018-08-28T03:58:32.609Z,0.00
2018-08-28T03:59:32.537Z,0.00
2018-08-28T04:00:32.463Z,0.00
2018-08-28T04:01:32.391Z,0.00
2018-08-28T04:02:32.320Z,0.00
2018-08-28T04:03:32.260Z,0.00
2018-08-28T04:04:32.172Z,0.00
2018-08-28T04:05:32.101Z,0.00
2018-08-28T04:06:32.027Z,0.00
2018-08-28T04:07:31.973Z,0.00
2018-08-28T04:08:31.879Z,0.00
2018-08-28T04:09:31.808Z,0.00
2018-08-28T04:10:31.734Z,0.00
2018-08-28T04:11:31.660Z,0.00
2018-08-28T04:12:31.588Z,0.00
2018-08-28T04:13:31.515Z,0.00
2018-08-28T04:14:31.450Z,0.00
2018-08-28T04:15:31.368Z,0.00
2018-08-28T04:16:31.301Z,0.00
2018-08-28T04:17:31.222Z,0.00
2018-08-28T04:18:31.150Z,0.00
2018-08-28T04:19:31.074Z,0.00
2018-08-28T04:20:31.001Z,0.00
2018-08-28T04:21:30.928Z,0.00
2018-08-28T04:22:30.869Z,0.00
2018-08-28T04:23:30.785Z,0.00
2018-08-28T04:24:30.710Z,0.00
2018-08-28T04:25:30.635Z,0.00
2018-08-28T04:26:30.564Z,0.00
2018-08-28T04:27:30.494Z,0.00
2018-08-28T04:28:30.414Z,0.00
2018-08-28T04:29:30.344Z,0.00
2018-08-28T04:30:30.286Z,0.00
2018-08-28T04:31:30.197Z,0.00
2018-08-28T04:32:30.122Z,0.00
2018-08-28T04:33:30.050Z,0.00
2018-08-28T04:34:29.977Z,0.00
2018-08-28T04:35:29.901Z,0.00
2018-08-28T04:36:29.829Z,0.00
2018-08-28T04:37:29.754Z,0.00
2018-08-28T04:38:29.681Z,0.00
2018-08-28T04:39:29.608Z,0.00
2018-08-28T04:40:29.534Z,0.00
2018-08-28T04:41:29.461Z,5.63
2018-08-28T04:42:29.387Z,5.63
2018-08-28T04:43:29.319Z,5.63
2018-08-28T04:44:29.245Z,5.63
2018-08-28T04:45:29.167Z,5.63
2018-08-28T04:46:29.094Z,5.63
2018-08-28T04:47:29.020Z,5.63
2018-08-28T04:48:29.013Z,5.63
2018-08-28T04:49:28.873Z,5.63
2018-08-28T04:50:28.802Z,5.63
2018-08-28T04:51:28.729Z,11.25
2018-08-28T04:52:28.653Z,11.25
2018-08-28T04:53:28.574Z,11.25
2018-08-28T04:54:28.510Z,11.25
2018-08-28T04:55:28.436Z,11.25
2018-08-28T04:56:28.358Z,11.25
2018-08-28T04:57:28.287Z,11.25
2018-08-28T04:58:28.214Z,11.25
2018-08-28T04:59:28.137Z,16.88
2018-08-28T05:00:28.064Z,16.88
2018-08-28T05:01:27.989Z,16.88
2018-08-28T05:02:27.916Z,16.88
2018-08-28T05:03:27.843Z,16.88
2018-08-28T05:04:27.770Z,16.88
2018-08-28T05:05:27.699Z,16.88
2018-08-28T05:06:27.642Z,16.88
2018-08-28T05:07:27.549Z,22.50
2018-08-28T05:08:27.474Z,22.50
2018-08-28T05:09:27.401Z,22.50
2018-08-28T05:10:27.330Z,22.50
2018-08-28T05:11:27.257Z,22.50
2018-08-28T05:12:27.183Z,22.50
2018-08-28T05:13:27.109Z,22.50
2018-08-28T05:14:27.031Z,28.13
2018-08-28T05:15:26.958Z,28.13
2018-08-28T05:16:26.885Z,28.13
2018-08-28T05:17:26.811Z,28.13
2018-08-28T05:18:26.747Z,28.13
2018-08-28T05:19:26.797Z,28.13
2018-08-28T05:20:26.590Z,28.13
2018-08-28T05:21:26.516Z,33.75
2018-08-28T05:22:26.450Z,33.75
2018-08-28T05:23:26.369Z,33.75
2018-08-28T05:24:26.296Z,33.75
2018-08-28T05:25:26.232Z,33.75
2018-08-28T05:26:26.148Z,39.38
2018-08-28T05:27:26.074Z,39.38
2018-08-28T05:28:25.999Z,39.38
2018-08-28T05:29:25.935Z,39.38
2018-08-28T05:30:25.935Z,39.38
2018-08-28T05:31:25.786Z,39.38
2018-08-28T05:32:25.746Z,45.00
2018-08-28T05:33:25.632Z,45.00
2018-08-28T05:34:25.556Z,45.00
2018-08-28T05:35:25.483Z,45.00
2018-08-28T05:36:25.410Z,45.00
2018-08-28T05:37:25.336Z,45.00
2018-08-28T05:38:25.269Z,50.63
2018-08-28T05:39:25.192Z,50.63
2018-08-28T05:40:25.116Z,50.63
2018-08-28T05:41:25.047Z,50.63
2018-08-28T05:42:24.966Z,50.63
2018-08-28T05:43:24.895Z,50.63
2018-08-28T05:44:24.819Z,56.25
2018-08-28T05:45:24.746Z,56.25
2018-08-28T05:46:24.671Z,56.25
2018-08-28T05:47:24.602Z,56.25
2018-08-28T05:48:24.524Z,56.25
2018-08-28T05:49:24.452Z,56.25
2018-08-28T05:50:24.382Z,56.25
2018-08-28T05:51:24.303Z,61.88
2018-08-28T05:52:24.239Z,61.88
2018-08-28T05:53:24.156Z,61.88
2018-08-28T05:54:24.083Z,61.88
2018-08-28T05:55:24.011Z,61.88
2018-08-28T05:56:23.934Z,61.88
2018-08-28T05:57:23.866Z,61.88
2018-08-28T05:58:23.788Z,61.88
2018-08-28T05:59:23.717Z,67.50
2018-08-28T06:00:23.642Z,67.50
2018-08-28T06:01:23.568Z,67.50
2018-08-28T06:02:23.498Z,67.50
2018-08-28T06:03:23.530Z,67.50
2018-08-28T06:04:23.349Z,67.50
2018-08-28T06:05:23.274Z,67.50
2018-08-28T06:06:23.201Z,73.13
2018-08-28T06:07:23.131Z,73.13
2018-08-28T06:08:23.052Z,73.13
2018-08-28T06:09:22.978Z,73.13
2018-08-28T06:10:22.905Z,73.13
2018-08-28T06:11:22.831Z,73.13
2018-08-28T06:12:22.756Z,73.13
2018-08-28T06:13:22.692Z,73.13
2018-08-28T06:14:22.614Z,78.75
2018-08-28T06:15:22.540Z,78.75
2018-08-28T06:16:22.466Z,78.75
2018-08-28T06:17:22.392Z,78.75
2018-08-28T06:18:22.318Z,78.75
2018-08-28T06:19:22.295Z,78.75
2018-08-28T06:20:22.170Z,78.75
2018-08-28T06:21:22.097Z,78.75
2018-08-28T06:22:22.025Z,78.75
2018-08-28T06:23:21.953Z,84.38
2018-08-28T06:24:21.877Z,84.38
2018-08-28T06:25:21.807Z,84.38
2018-08-28T06:26:21.733Z,84.38
2018-08-28T06:27:21.660Z,84.38
2018-08-28T06:28:21.584Z,84.38
2018-08-28T06:29:21.510Z,84.38
2018-08-28T06:30:21.437Z,84.38
2018-08-28T06:31:21.364Z,84.38
2018-08-28T06:32:21.287Z,84.38
2018-08-28T06:33:21.235Z,84.38
2018-08-28T06:34:21.149Z,90.00
2018-08-28T06:35:21.073Z,90.00
2018-08-28T06:36:20.997Z,90.00
2018-08-28T06:37:20.986Z,90.00
2018-08-28T06:38:20.866Z,90.00
2018-08-28T06:39:20.781Z,90.00
2018-08-28T06:40:20.709Z,90.00
2018-08-28T06:41:20.633Z,90.00
2018-08-28T06:42:20.560Z,95.63
2018-08-28T06:43:20.510Z,95.63
2018-08-28T06:44:20.415Z,95.63
2018-08-28T06:45:20.342Z,95.63
2018-08-28T06:46:20.268Z,95.63
2018-08-28T06:47:20.195Z,95.63
2018-08-28T06:48:20.122Z,95.63
2018-08-28T06:49:20.052Z,95.63
2018-08-28T06:50:19.977Z,101.25
2018-08-28T06:51:19.904Z,95.63
2018-08-28T06:52:19.832Z,101.25
2018-08-28T06:53:19.759Z,101.25
2018-08-28T06:54:19.686Z,101.25
2018-08-28T06:55:19.614Z,101.25
2018-08-28T06:56:19.539Z,101.25
2018-08-28T06:57:19.469Z,101.25
2018-08-28T06:58:19.394Z,101.25
2018-08-28T06:59:19.322Z,101.25
2018-08-28T07:00:19.251Z,101.25
2018-08-28T07:01:19.174Z,101.25
2018-08-28T07:02:19.110Z,101.25
2018-08-28T07:03:19.031Z,101.25
2018-08-28T07:04:18.962Z,101.25
2018-08-28T07:05:18.886Z,106.88
2018-08-28T07:06:18.813Z,106.88
2018-08-28T07:07:18.746Z,106.88
2018-08-28T07:08:18.669Z,106.88
2018-08-28T07:09:18.628Z,106.88
2018-08-28T07:10:18.611Z,106.88
2018-08-28T07:11:18.449Z,106.88
2018-08-28T07:12:18.378Z,106.88
2018-08-28T07:13:18.305Z,106.88
2018-08-28T07:14:18.234Z,106.88
2018-08-28T07:15:18.159Z,106.88
2018-08-28T07:16:18.088Z,106.88
2018-08-28T07:17:18.014Z,106.88
2018-08-28T07:18:17.942Z,112.50
2018-08-28T07:19:17.880Z,112.50
2018-08-28T07:20:17.796Z,112.50
2018-08-28T07:21:17.724Z,112.50
2018-08-28T07:22:17.651Z,112.50
2018-08-28T07:23:17.580Z,112.50
2018-08-28T07:24:17.509Z,112.50
2018-08-28T07:25:17.430Z,112.50
2018-08-28T07:26:17.367Z,118.13
2018-08-28T07:27:17.297Z,112.50
2018-08-28T07:28:17.222Z,112.50
2018-08-28T07:29:17.147Z,112.50
2018-08-28T07:30:17.074Z,118.13
2018-08-28T07:31:17.058Z,118.13
2018-08-28T07:32:16.930Z,112.50
2018-08-28T07:33:16.861Z,118.13
2018-08-28T07:34:16.786Z,118.13
2018-08-28T07:35:16.715Z,118.13
2018-08-28T07:36:16.641Z,118.13
2018-08-28T07:37:16.586Z,118.13
2018-08-28T07:38:16.499Z,118.13
2018-08-28T07:39:16.429Z,118.13
2018-08-28T07:40:16.353Z,123.75
2018-08-28T07:41:16.287Z,123.75
2018-08-28T07:42:16.215Z,123.75
2018-08-28T07:43:16.140Z,123.75
2018-08-28T07:44:16.133Z,123.75
2018-08-28T07:45:16.023Z,123.75
2018-08-28T07:46:15.955Z,123.75
2018-08-28T07:47:15.853Z,123.75
2018-08-28T07:48:15.792Z,123.75
2018-08-28T07:49:15.708Z,129.38
2018-08-28T07:50:15.638Z,129.38
2018-08-28T07:51:15.565Z,129.38
2018-08-28T07:52:15.515Z,129.38
2018-08-28T07:53:15.421Z,129.38
2018-08-28T07:54:15.355Z,129.38
2018-08-28T07:55:15.280Z,135.00
2018-08-28T07:56:15.209Z,140.63
2018-08-28T07:57:15.137Z,140.63
2018-08-28T07:58:15.064Z,135.00
2018-08-28T07:59:14.991Z,135.00
2018-08-28T08:00:14.924Z,146.25
2018-08-28T08:01:14.855Z,140.63
2018-08-28T08:02:14.778Z,146.25
2018-08-28T08:03:14.713Z,146.25
2018-08-28T08:04:14.642Z,146.25
2018-08-28T08:05:14.565Z,146.25
2018-08-28T08:06:14.497Z,146.25
2018-08-28T08:07:14.423Z,146.25
2018-08-28T08:08:14.362Z,151.88
2018-08-28T08:09:14.279Z,157.50
2018-08-28T08:10:14.210Z,180.00
2018-08-28T08:11:14.139Z,180.00
2018-08-28T08:12:14.068Z,157.50
2018-08-28T08:13:13.994Z,151.88
2018-08-28T08:14:13.924Z,151.88
2018-08-28T08:15:13.855Z,151.88
2018-08-28T08:16:13.850Z,151.88
2018-08-28T08:17:13.707Z,151.88
2018-08-28T08:18:13.645Z,151.88
2018-08-28T08:19:13.574Z,151.88
2018-08-28T08:20:13.500Z,157.50
2018-08-28T08:21:13.427Z,157.50
2018-08-28T08:22:13.376Z,151.88
2018-08-28T08:23:13.288Z,157.50
2018-08-28T08:24:13.217Z,157.50
2018-08-28T08:25:13.146Z,163.13
2018-08-28T08:26:13.072Z,163.13
2018-08-28T08:27:13.008Z,168.75
2018-08-28T08:28:13.158Z,168.75
2018-08-28T08:29:12.865Z,168.75
2018-08-28T08:30:12.792Z,196.88
2018-08-28T08:31:12.726Z,196.88
2018-08-28T08:32:12.657Z,180.00
2018-08-28T08:33:12.584Z,185.63
2018-08-28T08:34:12.509Z,202.50
2018-08-28T08:35:12.445Z,236.25
2018-08-28T08:36:12.368Z,258.75
2018-08-28T08:37:12.300Z,264.38
2018-08-28T08:38:12.230Z,213.75
2018-08-28T08:39:12.158Z,191.25
2018-08-28T08:40:12.088Z,196.88
2018-08-28T08:41:12.019Z,213.75
2018-08-28T08:42:11.970Z,213.75
2018-08-28T08:43:11.878Z,208.13
2018-08-28T08:44:11.808Z,208.13
2018-08-28T08:45:11.741Z,208.13
2018-08-28T08:46:11.667Z,219.38
2018-08-28T08:47:11.604Z,219.38
2018-08-28T08:48:11.532Z,225.00
2018-08-28T08:49:11.461Z,225.00
2018-08-28T08:50:11.387Z,236.25
2018-08-28T08:51:11.318Z,247.50
2018-08-28T08:52:11.246Z,247.50
2018-08-28T08:53:11.180Z,270.00
2018-08-28T08:54:11.108Z,253.13
2018-08-28T08:55:11.039Z,253.13
2018-08-28T08:56:10.969Z,241.88
2018-08-28T08:57:10.959Z,241.88
2018-08-28T08:58:10.829Z,241.88
2018-08-28T08:59:10.762Z,247.50
2018-08-28T09:00:10.688Z,270.00
2018-08-28T09:01:10.618Z,331.88
2018-08-28T09:02:10.569Z,365.63
2018-08-28T09:03:10.480Z,399.38
2018-08-28T09:04:10.411Z,427.50
2018-08-28T09:05:10.340Z,478.13
2018-08-28T09:06:10.370Z,365.63
2018-08-28T09:07:10.206Z,253.13
2018-08-28T09:08:10.137Z,264.38
2018-08-28T09:09:10.067Z,196.88
2018-08-28T09:10:09.995Z,163.13
2018-08-28T09:11:09.934Z,135.00
2018-08-28T09:12:09.901Z,123.75
2018-08-28T09:13:09.789Z,106.88
2018-08-28T09:14:09.722Z,95.63
2018-08-28T09:15:09.654Z,90.00
2018-08-28T09:16:09.589Z,84.38
2018-08-28T09:17:09.514Z,84.38
2018-08-28T09:18:09.448Z,84.38
2018-08-28T09:19:09.407Z,78.75
2018-08-28T09:20:09.308Z,78.75
2018-08-28T09:21:09.246Z,84.38
2018-08-28T09:22:09.171Z,90.00
2018-08-28T09:23:09.102Z,90.00
2018-08-28T09:24:09.035Z,95.63
2018-08-28T09:25:08.961Z,106.88
2018-08-28T09:26:08.894Z,123.75
2018-08-28T09:27:08.825Z,135.00
2018-08-28T09:28:08.754Z,140.63
2018-08-28T09:29:08.686Z,146.25
2018-08-28T09:30:08.620Z,163.13
2018-08-28T09:31:08.619Z,180.00
2018-08-28T09:32:08.513Z,196.88
2018-08-28T09:33:08.407Z,202.50
2018-08-28T09:34:08.344Z,208.13
2018-08-28T09:35:08.268Z,208.13
2018-08-28T09:36:08.196Z,202.50
2018-08-28T09:37:08.130Z,213.75
2018-08-28T09:38:08.059Z,208.13
2018-08-28T09:39:07.990Z,219.38
2018-08-28T09:40:07.917Z,225.00
2018-08-28T09:41:07.848Z,230.63
2018-08-28T09:42:07.780Z,236.25
2018-08-28T09:43:07.709Z,225.00
2018-08-28T09:44:07.638Z,219.38
2018-08-28T09:45:07.568Z,219.38
2018-08-28T09:46:07.501Z,213.75
2018-08-28T09:47:07.429Z,213.75
2018-08-28T09:48:07.398Z,219.38
2018-08-28T09:49:07.287Z,241.88
2018-08-28T09:50:07.279Z,253.13
2018-08-28T09:51:07.190Z,258.75
2018-08-28T09:52:07.082Z,264.38
2018-08-28T09:53:07.011Z,270.00
2018-08-28T09:54:06.946Z,270.00
2018-08-28T09:55:06.870Z,281.25
2018-08-28T09:56:06.800Z,292.50
2018-08-28T09:57:06.731Z,303.75
2018-08-28T09:58:06.665Z,320.63
2018-08-28T09:59:06.596Z,326.25
2018-08-28T10:00:06.523Z,326.25
2018-08-28T10:01:06.449Z,326.25
2018-08-28T10:02:06.387Z,326.25
2018-08-28T10:03:06.314Z,320.63
2018-08-28T10:04:06.243Z,320.63
2018-08-28T10:05:06.175Z,320.63
2018-08-28T10:06:06.106Z,320.63
2018-08-28T10:07:06.031Z,320.63
2018-08-28T10:08:05.972Z,320.63
2018-08-28T10:09:05.896Z,331.88
2018-08-28T10:10:05.826Z,337.50
2018-08-28T10:11:05.846Z,360.00
2018-08-28T10:12:05.688Z,388.13
2018-08-28T10:13:05.621Z,421.88
2018-08-28T10:14:05.549Z,466.88
2018-08-28T10:15:05.475Z,478.13
2018-08-28T10:16:05.409Z,500.63
2018-08-28T10:17:05.341Z,534.38
2018-08-28T10:18:05.270Z,511.88
2018-08-28T10:19:05.195Z,472.50
2018-08-28T10:20:05.135Z,455.63
2018-08-28T10:21:05.070Z,438.75
2018-08-28T10:22:04.994Z,416.25
2018-08-28T10:23:04.925Z,405.00
2018-08-28T10:24:04.857Z,405.00
2018-08-28T10:25:04.789Z,410.63
2018-08-28T10:26:04.719Z,416.25
2018-08-28T10:27:04.654Z,438.75
2018-08-28T10:28:04.582Z,421.88
2018-08-28T10:29:04.514Z,410.63
2018-08-28T10:30:04.445Z,382.50
2018-08-28T10:31:04.377Z,371.25
2018-08-28T10:32:04.310Z,360.00
2018-08-28T10:33:04.248Z,371.25
2018-08-28T10:34:04.176Z,388.13
2018-08-28T10:35:04.107Z,360.00
2018-08-28T10:36:04.034Z,315.00
2018-08-28T10:37:03.969Z,292.50
2018-08-28T10:38:03.928Z,298.13
2018-08-28T10:39:03.831Z,281.25
2018-08-28T10:40:03.769Z,253.13
2018-08-28T10:41:03.699Z,264.38
2018-08-28T10:42:03.627Z,292.50
2018-08-28T10:43:03.556Z,298.13
2018-08-28T10:44:03.489Z,337.50
2018-08-28T10:45:03.417Z,376.88
2018-08-28T10:46:03.423Z,393.75
2018-08-28T10:47:03.291Z,427.50
2018-08-28T10:48:03.216Z,421.88
2018-08-28T10:49:03.149Z,416.25
2018-08-28T10:50:03.080Z,376.88
2018-08-28T10:51:03.008Z,360.00
2018-08-28T10:52:02.940Z,348.75
2018-08-28T10:53:02.941Z,331.88
2018-08-28T10:54:02.807Z,298.13
2018-08-28T10:55:02.736Z,286.88
2018-08-28T10:56:02.669Z,303.75
2018-08-28T10:57:02.599Z,337.50
2018-08-28T10:58:02.528Z,376.88
2018-08-28T10:59:02.461Z,388.13
2018-08-28T11:00:02.392Z,348.75
2018-08-28T11:01:02.338Z,303.75
2018-08-28T11:02:02.251Z,275.63
2018-08-28T11:03:02.192Z,275.63
2018-08-28T11:04:02.118Z,281.25
2018-08-28T11:05:02.053Z,286.88
2018-08-28T11:06:01.983Z,286.88
2018-08-28T11:07:01.917Z,298.13
2018-08-28T11:08:01.846Z,286.88
2018-08-28T11:09:01.783Z,292.50
2018-08-28T11:10:01.710Z,303.75
2018-08-28T11:11:01.641Z,326.25
2018-08-28T11:12:01.568Z,331.88
2018-08-28T11:13:01.501Z,348.75
2018-08-28T11:14:01.433Z,309.38
2018-08-28T11:15:01.363Z,309.38
2018-08-28T11:16:01.333Z,298.13
2018-08-28T11:17:01.228Z,303.75
2018-08-28T11:18:01.157Z,360.00
2018-08-28T11:19:01.094Z,365.63
2018-08-28T11:20:01.021Z,331.88
2018-08-28T11:21:00.954Z,444.38
2018-08-28T11:22:00.881Z,376.88
2018-08-28T11:23:00.886Z,433.13
2018-08-28T11:24:00.752Z,607.50
2018-08-28T11:25:00.677Z,495.00
2018-08-28T11:26:00.614Z,410.63
2018-08-28T11:27:00.541Z,900.00
2018-08-28T11:28:00.475Z,646.88
2018-08-28T11:29:00.413Z,236.25
2018-08-28T11:30:00.363Z,264.38
2018-08-28T11:31:00.271Z,331.88
2018-08-28T11:32:00.200Z,461.25
2018-08-28T11:33:00.132Z,956.25
2018-08-28T11:34:00.067Z,1366.88
2018-08-28T11:34:59.996Z,1400.63
2018-08-28T11:35:59.929Z,1226.25
2018-08-28T11:36:59.871Z,1288.13
2018-08-28T11:37:59.796Z,1451.25
2018-08-28T11:38:59.730Z,691.88
2018-08-28T11:39:59.667Z,348.75
2018-08-28T11:40:59.596Z,416.25
2018-08-28T11:41:59.530Z,354.38
2018-08-28T11:42:59.465Z,303.75
2018-08-28T11:43:59.401Z,433.13
2018-08-28T11:44:59.335Z,590.63
2018-08-28T11:45:59.268Z,579.38
2018-08-28T11:46:59.230Z,309.38
2018-08-28T11:47:59.136Z,315.00
2018-08-28T11:48:59.069Z,320.63
2018-08-28T11:49:59.001Z,326.25
2018-08-28T11:50:58.935Z,315.00
2018-08-28T11:51:58.870Z,331.88
2018-08-28T11:52:58.802Z,331.88
2018-08-28T11:53:58.735Z,326.25
2018-08-28T11:54:58.666Z,343.13
2018-08-28T11:55:58.603Z,309.38
2018-08-28T11:56:58.539Z,303.75
2018-08-28T11:57:58.468Z,298.13
2018-08-28T11:58:58.404Z,286.88
2018-08-28T11:59:58.340Z,298.13
2018-08-28T12:00:58.266Z,303.75
2018-08-28T12:01:58.224Z,303.75
2018-08-28T12:02:58.134Z,309.38
2018-08-28T12:03:58.065Z,303.75
2018-08-28T12:04:58.047Z,303.75
2018-08-28T12:05:57.934Z,405.00
2018-08-28T12:06:57.912Z,320.63
2018-08-28T12:07:57.796Z,303.75
2018-08-28T12:08:57.732Z,315.00
2018-08-28T12:09:57.660Z,303.75
2018-08-28T12:10:57.593Z,309.38
2018-08-28T12:11:57.530Z,303.75
2018-08-28T12:12:57.472Z,303.75
2018-08-28T12:13:57.387Z,320.63
2018-08-28T12:14:57.322Z,309.38
2018-08-28T12:15:57.257Z,292.50
2018-08-28T12:16:57.186Z,320.63
2018-08-28T12:17:57.121Z,303.75
2018-08-28T12:18:57.054Z,292.50
2018-08-28T12:19:56.983Z,292.50
2018-08-28T12:20:56.960Z,292.50
2018-08-28T12:21:56.848Z,292.50
2018-08-28T12:22:56.782Z,298.13
2018-08-28T12:23:56.708Z,298.13
2018-08-28T12:24:56.641Z,303.75
2018-08-28T12:25:56.575Z,315.00
2018-08-28T12:26:56.515Z,343.13
2018-08-28T12:27:56.442Z,326.25
2018-08-28T12:28:56.375Z,331.88
2018-08-28T12:29:56.303Z,298.13
2018-08-28T12:30:56.235Z,298.13
2018-08-28T12:31:56.165Z,298.13
2018-08-28T12:32:56.099Z,303.75
2018-08-28T12:33:56.032Z,298.13
2018-08-28T12:34:55.963Z,298.13
2018-08-28T12:35:55.901Z,298.13
2018-08-28T12:36:55.968Z,303.75
2018-08-28T12:37:55.766Z,303.75
2018-08-28T12:38:55.691Z,303.75
2018-08-28T12:39:55.625Z,303.75
2018-08-28T12:40:55.553Z,309.38
2018-08-28T12:41:55.496Z,309.38
2018-08-28T12:42:55.419Z,320.63
2018-08-28T12:43:55.395Z,309.38
2018-08-28T12:44:55.304Z,315.00
2018-08-28T12:45:55.216Z,309.38
2018-08-28T12:46:55.151Z,309.38
2018-08-28T12:47:55.076Z,315.00
2018-08-28T12:48:55.016Z,315.00
2018-08-28T12:49:54.941Z,315.00